Bruk link Alternativ webside om du vil se statistikk,rapport,graf,analyse og mye mer.

Vårt webkamera more information My webcam


webkamera på Randaberg more information webcam on Randaberg


Nedbørsradar  rain snow radar


Besøk vår andre værside:

Alternativ webside

Alternativ mobil

Regnskvett RandabergWebsite of another weatherstation



Ikke nødvendig med spesiell oppmerksomhet.    Det er ingen advarsler

Nære METAR rapporter

   
ENHD - Haugesund
oppdatert: 29-07-2021 16:20
Lett regn, For det meste skyet  
Lett regn, For det meste skyet  
   Vind: VSV 2.6 m/s
Vind: VSV 2.6 m/s
Temperatur: 18°C
Duggpunkt: 14°C
Fuktighet: 78%
Barometer: 997 hPa
Skyer: For det meste skyet
Sikt: More than 10 km
Skydetaljer: få skyer 365.8 m,
Delvis Skyet 1676.4 m,
For det meste skyet 3962.4 m
ENHD 291420Z 25005KT 9999 -RA FEW012 SCT055 BKN130 18/14 Q0997
ENZV - Randaberg
oppdatert: 29-07-2021 16:20
Delvis Skyet  
Delvis Skyet  
   Vind: VEST 4.6 m/s
Vind: VEST 4.6 m/s
Temperatur: 19°C
Duggpunkt: 14°C
Fuktighet: 73%
Barometer: 997 hPa
Skyer: Delvis Skyet
Sikt: More than 10 km
Skydetaljer: Delvis Skyet 548.6 m
ENZV 291420Z 27009KT 230V290 9999 SCT018TCU 19/14 Q0997 NOSIG
ENBR - Bergen
oppdatert: 29-07-2021 16:20
For det meste skyet  
For det meste skyet  
   Vind: VEST 1.5 m/s
Vind: VEST 1.5 m/s
Temperatur: 17°C
Duggpunkt: 14°C
Fuktighet: 83%
Barometer: 997 hPa
Skyer: For det meste skyet
Sikt: More than 10 km
Skydetaljer: Delvis Skyet 396.2 m,
For det meste skyet 1066.8 m
ENBR 291420Z 28003KT 9999 SCT013TCU BKN035 17/14 Q0997 TEMPO SHRA RMK WIND 1200FT 29004KT
ENCN - Kristiansand
oppdatert: 29-07-2021 16:20
Nearby Showers, Delvis Skyet  
Nearby Showers, Delvis Skyet  
   Vind: SV 5.1 m/s
Vind: SV 5.1 m/s
Temperatur: 17°C
Duggpunkt: 13°C
Fuktighet: 77%
Barometer: 996 hPa
Skyer: Delvis Skyet
Sikt: More than 10 km
Skydetaljer: få skyer 609.6 m,
Delvis Skyet 1158.2 m
ENCN 291420Z 22010KT 9999 VCSH FEW020CB SCT038 17/13 Q0996
ENGM - Oslo
oppdatert: 29-07-2021 16:20
Light Showers, Regn, For det meste skyet  
Light Showers, Regn, For det meste skyet  
   Vind: Sør 4.6 m/s
Vind: Sør 4.6 m/s
Temperatur: 14°C
Duggpunkt: 13°C
Fuktighet: 94%
Barometer: 996 hPa
Skyer: For det meste skyet
Sikt: More than 10 km
Skydetaljer: få skyer 213.4 m,
For det meste skyet 1036.3 m
ENGM 291420Z 17009KT 9999 -SHRA FEW007 BKN034 14/13 Q0996 TEMPO BKN009
ENVA - Trondheim
oppdatert: 29-07-2021 16:20
Nearby Showers, Delvis Skyet  
Nearby Showers, Delvis Skyet  
   Vind: SØ 3.1 m/s
Vind: SØ 3.1 m/s
Temperatur: 20°C
Duggpunkt: 15°C
Fuktighet: 73%
Barometer: 995 hPa
Skyer: Delvis Skyet
Sikt: More than 10 km
Skydetaljer: få skyer 1828.8 m,
Delvis Skyet 2987 m
ENVA 291420Z 13006KT 070V190 9999 VCSH FEW060CB SCT098 20/15 Q0995 TEMPO TSRA RMK WIND 670FT 18015KT

Script utviklet av  Saratoga-weather.org Tilrettelagt for malen av  Weerstation Leuven

Du finner vår vær info også på:

European Weather Network

WeatherCloud

Weather Underground

Citizen Weather Observer Program (CWOP)

Utstyr vi bruker:

Værstsjon
Oregon scientific WMR 300

Værprogram
Meteobridge

Oregon scientific WMR 300

Meteobridge